PWSweather.com
Personal Weather Stations
Station Observations
W7JKG
Phoenix, AZ 85032-2083

Phoenix, AZ 85032-2083

Lat: 33.645544, Lon: -112.007099

Elevation: 1474

Station Type: Davis Vantage Pro2 Wireless

http://tiggrweather.net/

High Low Average
Temperature 100.7°F38.2°C 75.1°F23.9°C 88.8°F31.6°C
Dew Point 73.3°F22.9°C 60.8°F16.0°C 68.4°F20.2°C
Winds 6.9 mph 11.1 kmh Calm Calm 2.0 mph S3.2 kmh S
Wind Gusts 11.5 mph18.5 kmh -- 3.0 mph4.8 kmh
Humidity 87% 28% 55%
Pressure 30.01 in1016.3 mb 29.89 in1012.2 mb -
Precipitation 0.01 in0.3 mm - -
Hour Temp Dew Point Humidity Winds Wind Gusts Pressure Precip Precip Rate Daily Precip Total
12:00 AM 75.1°F23.9°C 71.0°F21.7°C 87% 2.3 mph N3.7 kmh N 4.6 mph7.4 kmh 29.95 in1014.2 mb - 0.02 in0.5 mm 0.02 in0.5 mm
01:00 AM 76.6°F24.8°C 72.1°F22.3°C 86% 1.2 mph NNE1.9 kmh NNE 2.3 mph3.7 kmh 29.94 in1013.9 mb - 0.00 in0.0 mm 0.02 in0.5 mm
02:00 AM 77.9°F25.5°C 72.7°F22.6°C 84% Calm Calm 1.2 mph1.9 kmh 29.93 in1013.5 mb - 0.00 in0.0 mm 0.02 in0.5 mm
03:00 AM 78.2°F25.7°C 73.0°F22.8°C 84% Calm Calm -- 29.94 in1013.9 mb - 0.00 in0.0 mm 0.02 in0.5 mm
04:00 AM 78.3°F25.7°C 73.1°F22.8°C 84% Calm Calm 1.2 mph1.9 kmh 29.95 in1014.2 mb - 0.00 in0.0 mm 0.02 in0.5 mm
05:00 AM 78.5°F25.8°C 73.3°F22.9°C 84% Calm Calm 1.2 mph1.9 kmh 29.95 in1014.2 mb - 0.00 in0.0 mm 0.02 in0.5 mm
06:00 AM 78.5°F25.8°C 72.9°F22.7°C 83% Calm Calm -- 29.96 in1014.6 mb - 0.00 in0.0 mm 0.02 in0.5 mm
07:00 AM 79.7°F26.5°C 73.3°F22.9°C 81% Calm Calm -- 29.98 in1015.2 mb - 0.01 in0.3 mm 0.01 in0.3 mm
08:00 AM 86.6°F30.3°C 71.5°F21.9°C 61% 1.2 mph ENE1.9 kmh ENE 3.5 mph5.6 kmh 30.00 in1015.9 mb - 0.00 in0.0 mm 0.01 in0.3 mm
09:00 AM 90.5°F32.5°C 70.4°F21.3°C 52% Calm Calm 1.2 mph1.9 kmh 30.01 in1016.3 mb - 0.00 in0.0 mm 0.01 in0.3 mm
10:00 AM 93.0°F33.9°C 69.2°F20.7°C 46% 2.3 mph SE3.7 kmh SE 3.5 mph5.6 kmh 30.01 in1016.3 mb - 0.00 in0.0 mm 0.01 in0.3 mm
11:00 AM 94.7°F34.8°C 68.1°F20.1°C 42% Calm Calm 1.2 mph1.9 kmh 30.00 in1015.9 mb - 0.00 in0.0 mm 0.01 in0.3 mm
12:00 PM 96.2°F35.7°C 67.2°F19.6°C 39% 1.2 mph SE1.9 kmh SE 3.5 mph5.6 kmh 29.98 in1015.2 mb - 0.00 in0.0 mm 0.01 in0.3 mm
01:00 PM 97.5°F36.4°C 66.1°F18.9°C 36% 4.6 mph S7.4 kmh S 8.1 mph13.0 kmh 29.96 in1014.6 mb - 0.00 in0.0 mm 0.01 in0.3 mm
02:00 PM 99.3°F37.4°C 64.2°F17.9°C 32% 1.2 mph WSW1.9 kmh WSW 4.6 mph7.4 kmh 29.93 in1013.5 mb - 0.00 in0.0 mm 0.01 in0.3 mm
03:00 PM 100.7°F38.2°C 64.6°F18.1°C 31% 4.6 mph W7.4 kmh W 6.9 mph11.1 kmh 29.90 in1012.5 mb - 0.00 in0.0 mm 0.01 in0.3 mm
04:00 PM 100.0°F37.8°C 64.9°F18.3°C 32% 3.5 mph W5.6 kmh W 5.8 mph9.3 kmh 29.89 in1012.2 mb - 0.00 in0.0 mm 0.01 in0.3 mm
05:00 PM 99.7°F37.6°C 60.8°F16.0°C 28% 6.9 mph W11.1 kmh W 11.5 mph18.5 kmh 29.89 in1012.2 mb - 0.00 in0.0 mm 0.01 in0.3 mm
06:00 PM 93.5°F34.2°C 65.5°F18.6°C 40% 6.9 mph NW11.1 kmh NW 11.5 mph18.5 kmh 29.89 in1012.2 mb - 0.00 in0.0 mm 0.01 in0.3 mm
07:00 PM 92.3°F33.5°C 64.5°F18.1°C 40% 3.5 mph N5.6 kmh N 6.9 mph11.1 kmh 29.91 in1012.9 mb - 0.00 in0.0 mm 0.01 in0.3 mm
08:00 PM 92.5°F33.6°C 63.9°F17.7°C 39% 3.5 mph NW5.6 kmh NW 3.5 mph5.6 kmh 29.92 in1013.2 mb - 0.00 in0.0 mm 0.01 in0.3 mm
09:00 PM 91.5°F33.1°C 65.2°F18.4°C 42% 1.2 mph N1.9 kmh N 1.2 mph1.9 kmh 29.94 in1013.9 mb - 0.00 in0.0 mm 0.01 in0.3 mm
10:00 PM 90.6°F32.6°C 66.3°F19.1°C 45% Calm Calm -- 29.95 in1014.2 mb - 0.00 in0.0 mm 0.01 in0.3 mm
11:00 PM 89.5°F31.9°C 67.8°F19.9°C 49% Calm Calm -- 29.95 in1014.2 mb - 0.00 in0.0 mm 0.01 in0.3 mm